Terminal Aerodrome Forecast
Issued by NWS Sterling, VA

Current Version | Previous Version | Graphics & Text | Print | Product List | Glossary On
Versions: 1 2 3 4 5 6 7 8 9 10 11 12 13 14 15 16 17 18 19 20 21 22 23 24 25 26 27 28 29 30 31
000
FTUS41 KLWX 102300
TAFIAD
TAF
KIAD 102337Z 1100/1206 10007KT 6SM -TSRA BR SCT020CB BKN050
     FM110300 VRB03KT P6SM SCT050
     FM110800 VRB03KT 5SM BR SCT050
     FM111200 04006KT P6SM SCT050
     FM120100 11004KT P6SM SCT050
     FM120500 00000KT P6SM SCT050=

USA.gov is the U.S. government's official web portal to all federal, state and local government web resources and services.